Nearby METAR Reports

 

KAGC - Pittsburgh/Alleg, Pennsylvania, USA
Distance from station: SW 8mi, 12km
Updated: Sun, 26-Jun-2022 10:09pm EDT
Light rain, Overcast
Light rain, Overcast
 Wind from WSW
Wind: WSW 10 mph , 17 km/h
Temperature: 73°F , 23°C
Dew Point: 68°F , 20°C
Humidity: 83%
Barometer: 29.99 inHg , 1015.6 hPa
Summary: Light rain
Clouds: Overcast
Visibility: 3 miles , 5 km
Cloud details: Overcast 1400 ft
2022/06/27 02:09 KAGC 270209Z 24009KT 3SM -RA OVC014 23/20 A2999 RMK AO2 LTG DSNT NE TSE03 P0005 T02330200
KLBE - Latrobe/Westmorl, Pennsylvania, USA
Distance from station: ESE 24mi, 38km
Updated: Sun, 26-Jun-2022 10:15pm EDT
Mostly cloudy
Mostly cloudy
 Wind from SSW
Wind: SSW 10 mph , 17 km/h
Temperature: 75°F , 24°C
Dew Point: 73°F , 23°C
Humidity: 94%
Barometer: 30.01 inHg , 1016.3 hPa
Clouds: Mostly cloudy
Visibility: 10 miles , 16 km
Cloud details: Few Clouds 3800 ft
Partly cloudy 5000 ft
Mostly cloudy 6500 ft
2022/06/27 02:15 KLBE 270215Z AUTO 20009KT 10SM FEW038 SCT050 BKN065 24/23 A3001 RMK AO2 LTG DSNT N AND NE AND SW
 
KPIT - Pittsburgh, Pennsylvania, USA
Distance from station: WNW 25mi, 40km
Updated: Sun, 26-Jun-2022 9:51pm EDT
Light rain, Overcast
Light rain, Overcast
 Wind from WSW
Wind: WSW 6 mph , 9 km/h
Temperature: 73°F , 23°C
Dew Point: 66°F , 19°C
Humidity: 78%
Barometer: 30.00 inHg , 1015.9 hPa
Summary: Light rain
Clouds: Overcast
Visibility: 10 miles , 16 km
Cloud details: Partly cloudy 2500 ft
Mostly cloudy 4500 ft
Overcast 7000 ft
2022/06/27 01:51 KPIT 270151Z 25005KT 10SM -RA SCT025 BKN045 OVC070 23/19 A3000 RMK AO2 LTG DSNT NE-SE RAB25 TSB32E50 SLP156 P0000 T02280194
KBTP - Butler Co., Pennsylvania, USA
Distance from station: NNW 25mi, 41km
Updated: Sun, 26-Jun-2022 10:09pm EDT
Light rain, Overcast
Light rain, Overcast
 Wind from WSW
Wind: WSW 7 mph , 11 km/h
Temperature: 70°F , 21°C
Dew Point: 70°F , 21°C
Humidity: 100%
Barometer: 30.00 inHg , 1015.9 hPa
Summary: Light rain
Clouds: Overcast
Visibility: 10 miles , 16 km
Cloud details: Few Clouds 2300 ft
Mostly cloudy 5000 ft
Overcast 8000 ft
2022/06/27 02:09 KBTP 270209Z AUTO 25006KT 10SM -RA FEW023 BKN050 OVC080 21/21 A3000 RMK AO2 P0001 TSNO
 
KAFJ - Washington, Pennsylvania, USA
Distance from station: SW 32mi, 52km
Updated: Sun, 26-Jun-2022 10:04pm EDT
Rain, Overcast
Rain, Overcast
 Wind from SSW
Wind: SSW 6 mph , 9 km/h
Temperature: 72°F , 22°C
Dew Point: 70°F , 21°C
Humidity: 94%
Barometer: 30.04 inHg , 1017.3 hPa
Summary: Rain
Clouds: Overcast
Visibility: 10 miles , 16 km
Cloud details: Partly cloudy 2800 ft
Mostly cloudy 9000 ft
Overcast 11000 ft
2022/06/27 02:04 KAFJ 270204Z AUTO 20005KT 10SM RA SCT028 BKN090 OVC110 22/21 A3004 RMK AO2 LTG DSNT SW PNO $
KBVI - Beaver Falls Arp, Pennsylvania, USA
Distance from station: NW 40mi, 64km
Updated: Sun, 26-Jun-2022 10:15pm EDT
Nearby thunderstorm, Mostly cloudy
Nearby thunderstorm, Mostly cloudy
 Wind from calm
Wind: Calm
Temperature: 73°F , 23°C
Dew Point: 70°F , 21°C
Humidity: 89%
Barometer: 30.00 inHg , 1015.9 hPa
Summary: Nearby Thunderstorm
Clouds: Mostly cloudy
Visibility: 10 miles , 16 km
Cloud details: Mostly cloudy 2400 ft
Mostly cloudy 3000 ft
Mostly cloudy 3600 ft
2022/06/27 02:15 KBVI 270215Z AUTO 00000KT 10SM VCTS BKN024 BKN030 BKN036 23/21 A3000 RMK AO2 LTG DSNT E T02300210
 
KIDI - Indiana/Stewart, Pennsylvania, USA
Distance from station: ENE 40mi, 65km
Updated: Sun, 26-Jun-2022 10:15pm EDT
Mostly cloudy
Mostly cloudy
 Wind from WSW
Wind: WSW 8 mph , 13 km/h, Gust: 18 mph , 30 km/h
Temperature: 77°F , 25°C
Dew Point: 72°F , 22°C
Humidity: 83%
Barometer: 30.03 inHg , 1016.9 hPa
Clouds: Mostly cloudy
Visibility: 10 miles , 16 km
Cloud details: Few Clouds 2300 ft
Partly cloudy 4400 ft
Mostly cloudy 6000 ft
2022/06/27 02:15 KIDI 270215Z AUTO 25007G16KT 10SM FEW023 SCT044 BKN060 25/22 A3003 RMK A01
KHLG - Wheeling, West Virginia, USA
Distance from station: WSW 48mi, 77km
Updated: Sun, 26-Jun-2022 9:53pm EDT
Few Clouds
Few Clouds
 Wind from SW
Wind: SW 5 mph , 7 km/h
Temperature: 72°F , 22°C
Dew Point: 70°F , 21°C
Humidity: 94%
Barometer: 30.01 inHg , 1016.3 hPa
Clouds: Few Clouds
Visibility: 9 miles , 14 km
Cloud details: Few Clouds 11000 ft
2022/06/27 01:53 KHLG 270153Z AUTO 22004KT 9SM FEW110 22/21 A3001 RMK AO2 PK WND 25027/0055 LTG DSNT SE-SW RAE48 TSE21 SLP155 P0043 T02170206
 
K2G9 - Somerset, Pennsylvania, USA
Distance from station: ESE 49mi, 79km
Updated: Sun, 26-Jun-2022 10:15pm EDT
Partly cloudy
Partly cloudy
 Wind from SW
Wind: SW 8 mph , 13 km/h
Temperature: 70°F , 21°C
Dew Point: 66°F , 19°C
Humidity: 88%
Barometer: 30.07 inHg , 1018.3 hPa
Clouds: Partly cloudy
Visibility: 10 miles , 16 km
Cloud details: Partly cloudy 1300 ft
2022/06/27 02:15 K2G9 270215Z AUTO 23007KT 10SM SCT013 21/19 A3007 RMK AO2